sensor_id;sensor_type;location;lat;lon;timestamp;pressure;altitude;pressure_sealevel;temperature;humidity
54920;BME280;63804;53.120;8.764;2023-04-07T00:00:33;101687.41;;;6.13;47.84
54920;BME280;63804;53.120;8.764;2023-04-07T00:02:58;101683.75;;;6.15;47.46
54920;BME280;63804;53.120;8.764;2023-04-07T00:05:26;101681.34;;;6.11;47.91
54920;BME280;63804;53.120;8.764;2023-04-07T00:07:51;101680.78;;;6.04;48.21
54920;BME280;63804;53.120;8.764;2023-04-07T00:10:17;101681.09;;;5.98;48.57
54920;BME280;63804;53.120;8.764;2023-04-07T00:12:43;101679.81;;;6.06;48.09
54920;BME280;63804;53.120;8.764;2023-04-07T00:15:08;101676.16;;;6.09;48.31
54920;BME280;63804;53.120;8.764;2023-04-07T00:17:34;101670.75;;;5.93;48.66
54920;BME280;63804;53.120;8.764;2023-04-07T00:20:00;101673.19;;;5.98;48.42
54920;BME280;63804;53.120;8.764;2023-04-07T00:22:26;101671.28;;;5.82;49.00
54920;BME280;63804;53.120;8.764;2023-04-07T00:24:51;101671.94;;;5.69;49.39
54920;BME280;63804;53.120;8.764;2023-04-07T00:27:17;101669.72;;;5.78;49.56
54920;BME280;63804;53.120;8.764;2023-04-07T00:29:43;101673.84;;;5.84;49.33
54920;BME280;63804;53.120;8.764;2023-04-07T00:32:10;101667.09;;;5.60;49.89
54920;BME280;63804;53.120;8.764;2023-04-07T00:34:36;101680.09;;;5.63;49.87
54920;BME280;63804;53.120;8.764;2023-04-07T00:37:01;101678.72;;;5.55;49.79
54920;BME280;63804;53.120;8.764;2023-04-07T00:39:27;101679.19;;;5.45;50.41
54920;BME280;63804;53.120;8.764;2023-04-07T00:41:52;101682.47;;;5.50;50.40
54920;BME280;63804;53.120;8.764;2023-04-07T00:44:18;101680.75;;;5.49;50.45
54920;BME280;63804;53.120;8.764;2023-04-07T00:46:46;101678.34;;;5.44;50.69
54920;BME280;63804;53.120;8.764;2023-04-07T00:49:12;101671.78;;;5.34;50.58
54920;BME280;63804;53.120;8.764;2023-04-07T00:51:38;101675.09;;;5.19;51.50
54920;BME280;63804;53.120;8.764;2023-04-07T00:54:03;101677.81;;;5.36;51.29
54920;BME280;63804;53.120;8.764;2023-04-07T00:56:32;101679.31;;;5.42;50.63
54920;BME280;63804;53.120;8.764;2023-04-07T00:58:58;101687.16;;;5.43;50.46
54920;BME280;63804;53.120;8.764;2023-04-07T01:01:34;101684.38;;;5.46;50.54
54920;BME280;63804;53.120;8.764;2023-04-07T01:04:21;101684.59;;;5.42;50.56
54920;BME280;63804;53.120;8.764;2023-04-07T01:06:55;101679.59;;;5.36;50.77
54920;BME280;63804;53.120;8.764;2023-04-07T01:09:33;101681.13;;;5.21;51.00
54920;BME280;63804;53.120;8.764;2023-04-07T01:12:25;101679.97;;;5.07;51.37
54920;BME280;63804;53.120;8.764;2023-04-07T01:14:58;101678.41;;;5.03;51.67
54920;BME280;63804;53.120;8.764;2023-04-07T01:17:26;101675.03;;;5.20;51.04
54920;BME280;63804;53.120;8.764;2023-04-07T01:19:57;101675.56;;;5.08;51.34
54920;BME280;63804;53.120;8.764;2023-04-07T01:22:40;101688.75;;;4.88;51.93
54920;BME280;63804;53.120;8.764;2023-04-07T01:30:35;101678.53;;;5.00;51.22
54920;BME280;63804;53.120;8.764;2023-04-07T01:33:03;101678.53;;;5.00;51.54
54920;BME280;63804;53.120;8.764;2023-04-07T01:35:32;101679.91;;;5.09;51.04
54920;BME280;63804;53.120;8.764;2023-04-07T01:37:59;101676.41;;;5.08;51.06
54920;BME280;63804;53.120;8.764;2023-04-07T01:40:26;101673.53;;;5.15;50.64
54920;BME280;63804;53.120;8.764;2023-04-07T01:42:55;101677.00;;;5.15;50.53
54920;BME280;63804;53.120;8.764;2023-04-07T01:45:22;101679.69;;;4.95;51.24
54920;BME280;63804;53.120;8.764;2023-04-07T01:47:48;101675.56;;;5.08;50.89
54920;BME280;63804;53.120;8.764;2023-04-07T01:50:15;101672.22;;;5.04;51.12
54920;BME280;63804;53.120;8.764;2023-04-07T01:52:41;101677.81;;;4.97;50.99
54920;BME280;63804;53.120;8.764;2023-04-07T01:55:07;101671.88;;;5.12;50.73
54920;BME280;63804;53.120;8.764;2023-04-07T01:57:34;101671.81;;;5.14;50.74
54920;BME280;63804;53.120;8.764;2023-04-07T01:59:59;101677.88;;;5.16;50.35
54920;BME280;63804;53.120;8.764;2023-04-07T02:02:25;101675.44;;;5.11;50.78
54920;BME280;63804;53.120;8.764;2023-04-07T02:04:54;101678.88;;;4.93;51.12
54920;BME280;63804;53.120;8.764;2023-04-07T02:07:28;101677.38;;;4.87;51.45
54920;BME280;63804;53.120;8.764;2023-04-07T02:09:57;101676.31;;;4.91;51.40
54920;BME280;63804;53.120;8.764;2023-04-07T02:12:28;101678.03;;;4.92;50.96
54920;BME280;63804;53.120;8.764;2023-04-07T02:14:54;101673.94;;;4.85;51.29
54920;BME280;63804;53.120;8.764;2023-04-07T02:17:24;101676.69;;;4.82;51.09
54920;BME280;63804;53.120;8.764;2023-04-07T02:19:52;101678.28;;;4.86;51.13
54920;BME280;63804;53.120;8.764;2023-04-07T02:22:18;101676.31;;;4.91;50.94
54920;BME280;63804;53.120;8.764;2023-04-07T02:24:43;101676.97;;;4.76;51.51
54920;BME280;63804;53.120;8.764;2023-04-07T02:27:09;101673.94;;;4.65;51.81
54920;BME280;63804;53.120;8.764;2023-04-07T02:29:38;101671.66;;;4.77;51.32
54920;BME280;63804;53.120;8.764;2023-04-07T02:32:05;101678.44;;;4.83;51.17
54920;BME280;63804;53.120;8.764;2023-04-07T02:34:31;101675.81;;;4.83;51.31
54920;BME280;63804;53.120;8.764;2023-04-07T02:36:56;101677.50;;;4.84;51.35
54920;BME280;63804;53.120;8.764;2023-04-07T02:39:21;101685.44;;;4.82;51.13
54920;BME280;63804;53.120;8.764;2023-04-07T02:41:53;101683.69;;;4.83;51.05
54920;BME280;63804;53.120;8.764;2023-04-07T02:44:19;101688.03;;;4.84;51.11
54920;BME280;63804;53.120;8.764;2023-04-07T02:46:44;101688.41;;;4.75;51.30
54920;BME280;63804;53.120;8.764;2023-04-07T02:49:10;101682.56;;;4.68;51.41
54920;BME280;63804;53.120;8.764;2023-04-07T02:51:35;101692.91;;;4.73;51.23
54920;BME280;63804;53.120;8.764;2023-04-07T02:54:01;101689.78;;;4.63;51.30
54920;BME280;63804;53.120;8.764;2023-04-07T02:56:27;101684.72;;;4.58;51.47
54920;BME280;63804;53.120;8.764;2023-04-07T02:58:52;101681.78;;;4.66;51.35
54920;BME280;63804;53.120;8.764;2023-04-07T03:01:18;101683.06;;;4.56;51.24
54920;BME280;63804;53.120;8.764;2023-04-07T03:03:43;101682.84;;;4.40;52.06
54920;BME280;63804;53.120;8.764;2023-04-07T03:06:12;101684.59;;;4.41;52.37
54920;BME280;63804;53.120;8.764;2023-04-07T03:08:38;101684.34;;;4.25;52.58
54920;BME280;63804;53.120;8.764;2023-04-07T03:11:04;101692.53;;;4.18;53.01
54920;BME280;63804;53.120;8.764;2023-04-07T03:13:30;101693.16;;;4.24;52.92
54920;BME280;63804;53.120;8.764;2023-04-07T03:15:56;101685.22;;;4.26;52.98
54920;BME280;63804;53.120;8.764;2023-04-07T03:18:22;101691.03;;;4.12;53.82
54920;BME280;63804;53.120;8.764;2023-04-07T03:20:48;101688.94;;;3.98;54.43
54920;BME280;63804;53.120;8.764;2023-04-07T03:23:13;101690.41;;;4.05;54.45
54920;BME280;63804;53.120;8.764;2023-04-07T03:25:39;101690.94;;;3.92;54.54
54920;BME280;63804;53.120;8.764;2023-04-07T03:28:05;101694.00;;;3.79;54.76
54920;BME280;63804;53.120;8.764;2023-04-07T03:30:31;101675.13;;;3.70;54.96
54920;BME280;63804;53.120;8.764;2023-04-07T03:32:56;101676.94;;;3.68;54.88
54920;BME280;63804;53.120;8.764;2023-04-07T03:35:22;101679.56;;;3.68;54.72
54920;BME280;63804;53.120;8.764;2023-04-07T03:37:47;101685.84;;;3.87;54.55
54920;BME280;63804;53.120;8.764;2023-04-07T03:40:13;101684.78;;;3.93;54.13
54920;BME280;63804;53.120;8.764;2023-04-07T03:42:38;101684.94;;;3.88;54.18
54920;BME280;63804;53.120;8.764;2023-04-07T03:45:04;101688.03;;;3.76;54.40
54920;BME280;63804;53.120;8.764;2023-04-07T03:47:30;101691.13;;;3.63;54.89
54920;BME280;63804;53.120;8.764;2023-04-07T03:49:56;101687.47;;;3.68;54.81
54920;BME280;63804;53.120;8.764;2023-04-07T03:52:21;101694.59;;;3.64;54.75
54920;BME280;63804;53.120;8.764;2023-04-07T03:54:47;101692.69;;;3.69;54.47
54920;BME280;63804;53.120;8.764;2023-04-07T03:57:13;101697.19;;;3.66;54.72
54920;BME280;63804;53.120;8.764;2023-04-07T03:59:38;101700.41;;;3.72;54.35
54920;BME280;63804;53.120;8.764;2023-04-07T04:02:10;101703.97;;;3.71;54.27
54920;BME280;63804;53.120;8.764;2023-04-07T04:04:36;101704.53;;;3.79;54.35
54920;BME280;63804;53.120;8.764;2023-04-07T04:07:01;101706.72;;;3.68;54.37
54920;BME280;63804;53.120;8.764;2023-04-07T04:09:27;101702.81;;;3.78;54.26
54920;BME280;63804;53.120;8.764;2023-04-07T04:11:52;101706.38;;;3.77;54.23
54920;BME280;63804;53.120;8.764;2023-04-07T04:14:18;101708.16;;;3.77;54.59
54920;BME280;63804;53.120;8.764;2023-04-07T04:16:44;101709.03;;;3.76;54.29
54920;BME280;63804;53.120;8.764;2023-04-07T04:19:09;101719.09;;;3.65;54.75
54920;BME280;63804;53.120;8.764;2023-04-07T04:21:35;101719.81;;;3.70;54.54
54920;BME280;63804;53.120;8.764;2023-04-07T04:24:00;101717.03;;;3.49;55.43
54920;BME280;63804;53.120;8.764;2023-04-07T04:26:26;101718.53;;;3.56;55.04
54920;BME280;63804;53.120;8.764;2023-04-07T04:28:53;101727.34;;;3.55;55.24
54920;BME280;63804;53.120;8.764;2023-04-07T04:31:19;101720.78;;;3.67;54.73
54920;BME280;63804;53.120;8.764;2023-04-07T04:33:45;101721.41;;;3.50;55.16
54920;BME280;63804;53.120;8.764;2023-04-07T04:36:10;101725.00;;;3.48;55.35
54920;BME280;63804;53.120;8.764;2023-04-07T04:38:36;101731.34;;;3.42;55.57
54920;BME280;63804;53.120;8.764;2023-04-07T04:41:02;101735.78;;;3.40;55.74
54920;BME280;63804;53.120;8.764;2023-04-07T04:43:27;101741.78;;;3.44;55.82
54920;BME280;63804;53.120;8.764;2023-04-07T04:45:53;101738.78;;;3.54;55.17
54920;BME280;63804;53.120;8.764;2023-04-07T04:48:18;101745.22;;;3.46;55.69
54920;BME280;63804;53.120;8.764;2023-04-07T04:50:44;101746.84;;;3.50;55.45
54920;BME280;63804;53.120;8.764;2023-04-07T04:53:09;101755.50;;;3.52;55.17
54920;BME280;63804;53.120;8.764;2023-04-07T04:55:35;101757.91;;;3.58;55.11
54920;BME280;63804;53.120;8.764;2023-04-07T04:58:01;101757.38;;;3.48;55.43
54920;BME280;63804;53.120;8.764;2023-04-07T05:00:27;101762.34;;;3.56;55.14
54920;BME280;63804;53.120;8.764;2023-04-07T05:02:53;101756.25;;;3.55;55.27
54920;BME280;63804;53.120;8.764;2023-04-07T05:05:19;101763.19;;;3.56;55.13
54920;BME280;63804;53.120;8.764;2023-04-07T05:07:45;101764.97;;;3.56;55.32
54920;BME280;63804;53.120;8.764;2023-04-07T05:10:10;101766.75;;;3.55;55.11
54920;BME280;63804;53.120;8.764;2023-04-07T05:12:37;101769.44;;;3.54;55.45
54920;BME280;63804;53.120;8.764;2023-04-07T05:15:02;101774.06;;;3.47;55.78
54920;BME280;63804;53.120;8.764;2023-04-07T05:17:28;101769.75;;;3.45;55.70
54920;BME280;63804;53.120;8.764;2023-04-07T05:19:53;101782.59;;;3.54;55.37
54920;BME280;63804;53.120;8.764;2023-04-07T05:22:19;101782.72;;;3.49;55.46
54920;BME280;63804;53.120;8.764;2023-04-07T05:24:45;101779.75;;;3.35;56.17
54920;BME280;63804;53.120;8.764;2023-04-07T05:27:10;101779.47;;;3.43;55.73
54920;BME280;63804;53.120;8.764;2023-04-07T05:29:36;101785.00;;;3.35;55.87
54920;BME280;63804;53.120;8.764;2023-04-07T05:32:04;101784.25;;;3.31;56.43
54920;BME280;63804;53.120;8.764;2023-04-07T05:34:29;101780.91;;;3.51;55.84
54920;BME280;63804;53.120;8.764;2023-04-07T05:36:55;101781.72;;;3.53;55.48
54920;BME280;63804;53.120;8.764;2023-04-07T05:39:21;101783.59;;;3.50;55.34
54920;BME280;63804;53.120;8.764;2023-04-07T05:41:46;101792.84;;;3.60;55.39
54920;BME280;63804;53.120;8.764;2023-04-07T05:44:12;101785.88;;;3.59;55.53
54920;BME280;63804;53.120;8.764;2023-04-07T05:46:37;101782.69;;;3.74;55.08
54920;BME280;63804;53.120;8.764;2023-04-07T05:49:03;101793.13;;;3.76;54.96
54920;BME280;63804;53.120;8.764;2023-04-07T05:51:28;101792.56;;;3.68;55.14
54920;BME280;63804;53.120;8.764;2023-04-07T05:53:57;101808.44;;;3.65;55.27
54920;BME280;63804;53.120;8.764;2023-04-07T05:56:23;101798.25;;;3.80;54.97
54920;BME280;63804;53.120;8.764;2023-04-07T05:58:48;101795.97;;;3.95;54.46
54920;BME280;63804;53.120;8.764;2023-04-07T06:01:14;101804.38;;;4.04;54.42
54920;BME280;63804;53.120;8.764;2023-04-07T06:03:40;101805.25;;;4.05;54.31
54920;BME280;63804;53.120;8.764;2023-04-07T06:06:05;101808.63;;;4.08;54.54
54920;BME280;63804;53.120;8.764;2023-04-07T06:08:31;101812.06;;;4.10;54.21
54920;BME280;63804;53.120;8.764;2023-04-07T06:10:56;101813.47;;;4.19;54.09
54920;BME280;63804;53.120;8.764;2023-04-07T06:13:22;101803.44;;;4.29;53.63
54920;BME280;63804;53.120;8.764;2023-04-07T06:15:48;101805.94;;;4.32;52.99
54920;BME280;63804;53.120;8.764;2023-04-07T06:18:13;101812.25;;;4.28;52.87
54920;BME280;63804;53.120;8.764;2023-04-07T06:20:39;101813.63;;;4.38;52.85
54920;BME280;63804;53.120;8.764;2023-04-07T06:23:04;101817.00;;;4.42;52.87
54920;BME280;63804;53.120;8.764;2023-04-07T06:25:30;101819.25;;;4.51;52.50
54920;BME280;63804;53.120;8.764;2023-04-07T06:27:56;101829.69;;;4.52;52.34
54920;BME280;63804;53.120;8.764;2023-04-07T06:30:22;101826.06;;;4.56;52.08
54920;BME280;63804;53.120;8.764;2023-04-07T06:32:47;101833.06;;;4.56;52.17
54920;BME280;63804;53.120;8.764;2023-04-07T06:35:13;101837.16;;;4.63;52.00
54920;BME280;63804;53.120;8.764;2023-04-07T06:37:39;101835.97;;;4.72;51.49
54920;BME280;63804;53.120;8.764;2023-04-07T06:40:07;101838.34;;;4.78;51.07
54920;BME280;63804;53.120;8.764;2023-04-07T06:42:33;101843.25;;;4.87;51.19
54920;BME280;63804;53.120;8.764;2023-04-07T06:44:58;101844.03;;;4.89;50.96
54920;BME280;63804;53.120;8.764;2023-04-07T06:47:24;101842.78;;;4.98;51.11
54920;BME280;63804;53.120;8.764;2023-04-07T06:49:50;101852.88;;;5.08;50.77
54920;BME280;63804;53.120;8.764;2023-04-07T06:52:15;101848.47;;;5.09;50.61
54920;BME280;63804;53.120;8.764;2023-04-07T06:54:41;101851.59;;;5.19;50.47
54920;BME280;63804;53.120;8.764;2023-04-07T06:57:08;101846.03;;;5.25;50.34
54920;BME280;63804;53.120;8.764;2023-04-07T06:59:37;101853.69;;;5.31;50.38
54920;BME280;63804;53.120;8.764;2023-04-07T07:02:03;101846.31;;;5.39;50.27
54920;BME280;63804;53.120;8.764;2023-04-07T07:04:28;101853.69;;;5.31;49.83
54920;BME280;63804;53.120;8.764;2023-04-07T07:06:54;101852.66;;;5.35;49.84
54920;BME280;63804;53.120;8.764;2023-04-07T07:09:20;101860.22;;;5.43;49.40
54920;BME280;63804;53.120;8.764;2023-04-07T07:11:46;101859.28;;;5.44;49.42
54920;BME280;63804;53.120;8.764;2023-04-07T07:14:12;101859.69;;;5.55;49.44
54920;BME280;63804;53.120;8.764;2023-04-07T07:16:37;101857.59;;;5.63;49.45
54920;BME280;63804;53.120;8.764;2023-04-07T07:19:03;101864.13;;;5.75;49.13
54920;BME280;63804;53.120;8.764;2023-04-07T07:21:29;101862.19;;;5.78;49.44
54920;BME280;63804;53.120;8.764;2023-04-07T07:23:55;101868.16;;;5.82;49.89
54920;BME280;63804;53.120;8.764;2023-04-07T07:26:21;101877.94;;;5.80;49.96
54920;BME280;63804;53.120;8.764;2023-04-07T07:28:47;101872.47;;;5.85;50.23
54920;BME280;63804;53.120;8.764;2023-04-07T07:31:12;101878.38;;;5.90;49.77
54920;BME280;63804;53.120;8.764;2023-04-07T07:33:40;101875.56;;;5.94;49.99
54920;BME280;63804;53.120;8.764;2023-04-07T07:36:08;101876.47;;;5.93;49.25
54920;BME280;63804;53.120;8.764;2023-04-07T07:38:41;101882.78;;;6.10;49.03
54920;BME280;63804;53.120;8.764;2023-04-07T07:41:07;101886.91;;;6.15;49.08
54920;BME280;63804;53.120;8.764;2023-04-07T07:43:32;101884.06;;;6.20;49.18
54920;BME280;63804;53.120;8.764;2023-04-07T07:45:58;101882.94;;;6.25;49.24
54920;BME280;63804;53.120;8.764;2023-04-07T07:48:23;101885.28;;;6.31;49.06
54920;BME280;63804;53.120;8.764;2023-04-07T07:50:50;101883.34;;;6.35;48.98
54920;BME280;63804;53.120;8.764;2023-04-07T07:53:17;101890.31;;;6.38;48.72
54920;BME280;63804;53.120;8.764;2023-04-07T07:55:42;101896.94;;;6.46;49.00
54920;BME280;63804;53.120;8.764;2023-04-07T07:58:08;101898.50;;;6.50;48.59
54920;BME280;63804;53.120;8.764;2023-04-07T08:00:33;101899.19;;;6.56;48.13
54920;BME280;63804;53.120;8.764;2023-04-07T08:02:59;101898.09;;;6.60;47.42
54920;BME280;63804;53.120;8.764;2023-04-07T08:05:28;101900.44;;;6.66;47.41
54920;BME280;63804;53.120;8.764;2023-04-07T08:07:53;101904.38;;;6.76;47.00
54920;BME280;63804;53.120;8.764;2023-04-07T08:10:20;101904.38;;;6.76;47.20
54920;BME280;63804;53.120;8.764;2023-04-07T08:12:46;101904.13;;;6.81;47.42
54920;BME280;63804;53.120;8.764;2023-04-07T08:15:14;101902.88;;;6.89;47.09
54920;BME280;63804;53.120;8.764;2023-04-07T08:17:40;101907.13;;;6.92;47.03
54920;BME280;63804;53.120;8.764;2023-04-07T08:20:08;101916.69;;;6.94;46.60
54920;BME280;63804;53.120;8.764;2023-04-07T08:22:35;101908.78;;;6.94;46.49
54920;BME280;63804;53.120;8.764;2023-04-07T08:25:01;101911.13;;;7.00;45.62
54920;BME280;63804;53.120;8.764;2023-04-07T08:27:30;101903.13;;;7.02;45.58
54920;BME280;63804;53.120;8.764;2023-04-07T08:30:03;101910.53;;;7.13;44.70
54920;BME280;63804;53.120;8.764;2023-04-07T08:32:39;101917.06;;;7.23;44.62
54920;BME280;63804;53.120;8.764;2023-04-07T08:35:05;101903.31;;;7.34;44.91
54920;BME280;63804;53.120;8.764;2023-04-07T08:37:32;101909.28;;;7.37;44.18
54920;BME280;63804;53.120;8.764;2023-04-07T08:39:58;101913.44;;;7.43;44.06
54920;BME280;63804;53.120;8.764;2023-04-07T08:42:28;101913.91;;;7.51;43.31
54920;BME280;63804;53.120;8.764;2023-04-07T08:44:56;101915.06;;;7.63;43.38
54920;BME280;63804;53.120;8.764;2023-04-07T08:47:24;101918.16;;;7.71;43.28
54920;BME280;63804;53.120;8.764;2023-04-07T08:49:53;101914.19;;;7.80;41.72
54920;BME280;63804;53.120;8.764;2023-04-07T08:52:27;101921.97;;;7.83;40.85
54920;BME280;63804;53.120;8.764;2023-04-07T08:54:57;101927.88;;;7.88;40.67
54920;BME280;63804;53.120;8.764;2023-04-07T08:57:29;101920.03;;;7.86;40.80
54920;BME280;63804;53.120;8.764;2023-04-07T08:59:59;101919.72;;;7.92;40.99
54920;BME280;63804;53.120;8.764;2023-04-07T09:02:32;101918.38;;;8.01;40.96
54920;BME280;63804;53.120;8.764;2023-04-07T09:04:59;101915.56;;;8.04;40.09
54920;BME280;63804;53.120;8.764;2023-04-07T09:07:25;101919.75;;;8.08;39.96
54920;BME280;63804;53.120;8.764;2023-04-07T09:09:50;101920.53;;;8.10;39.79
54920;BME280;63804;53.120;8.764;2023-04-07T09:12:16;101922.75;;;8.18;39.92
54920;BME280;63804;53.120;8.764;2023-04-07T09:14:42;101914.91;;;8.16;39.75
54920;BME280;63804;53.120;8.764;2023-04-07T09:17:07;101921.59;;;8.23;39.30
54920;BME280;63804;53.120;8.764;2023-04-07T09:19:34;101927.53;;;8.29;38.96
54920;BME280;63804;53.120;8.764;2023-04-07T09:21:59;101920.97;;;8.36;39.01
54920;BME280;63804;53.120;8.764;2023-04-07T09:24:27;101930.28;;;8.43;38.72
54920;BME280;63804;53.120;8.764;2023-04-07T09:29:36;101929.50;;;8.57;39.68
54920;BME280;63804;53.120;8.764;2023-04-07T09:32:02;101930.72;;;8.67;38.31
54920;BME280;63804;53.120;8.764;2023-04-07T09:34:35;101924.31;;;8.71;38.63
54920;BME280;63804;53.120;8.764;2023-04-07T09:37:02;101924.00;;;8.77;39.05
54920;BME280;63804;53.120;8.764;2023-04-07T09:39:29;101926.28;;;8.83;38.29
54920;BME280;63804;53.120;8.764;2023-04-07T09:41:56;101920.56;;;8.91;38.27
54920;BME280;63804;53.120;8.764;2023-04-07T09:44:23;101920.31;;;8.95;37.92
54920;BME280;63804;53.120;8.764;2023-04-07T09:46:53;101917.56;;;8.97;37.79
54920;BME280;63804;53.120;8.764;2023-04-07T09:49:20;101929.28;;;8.93;37.46
54920;BME280;63804;53.120;8.764;2023-04-07T09:54:37;101908.41;;;9.03;38.05
54920;BME280;63804;53.120;8.764;2023-04-07T09:57:04;101918.84;;;9.06;37.79
54920;BME280;63804;53.120;8.764;2023-04-07T09:59:31;101913.34;;;9.09;37.53
54920;BME280;63804;53.120;8.764;2023-04-07T10:01:57;101915.47;;;9.18;37.40
54920;BME280;63804;53.120;8.764;2023-04-07T10:04:26;101917.03;;;9.22;38.19
54920;BME280;63804;53.120;8.764;2023-04-07T10:06:54;101913.94;;;9.14;37.90
54920;BME280;63804;53.120;8.764;2023-04-07T10:09:22;101921.03;;;9.13;37.63
54920;BME280;63804;53.120;8.764;2023-04-07T10:11:49;101914.88;;;9.13;37.41
54920;BME280;63804;53.120;8.764;2023-04-07T10:14:17;101915.69;;;9.15;38.06
54920;BME280;63804;53.120;8.764;2023-04-07T10:16:43;101922.22;;;9.23;37.16
54920;BME280;63804;53.120;8.764;2023-04-07T10:19:09;101919.31;;;9.28;37.71
54920;BME280;63804;53.120;8.764;2023-04-07T10:21:41;101920.09;;;9.30;37.21
54920;BME280;63804;53.120;8.764;2023-04-07T10:24:26;101913.72;;;9.33;36.29
54920;BME280;63804;53.120;8.764;2023-04-07T10:27:00;101920.72;;;9.50;36.59
54920;BME280;63804;53.120;8.764;2023-04-07T10:29:31;101929.63;;;9.49;36.09
54920;BME280;63804;53.120;8.764;2023-04-07T10:32:01;101929.53;;;9.50;36.18
54920;BME280;63804;53.120;8.764;2023-04-07T10:37:13;101926.66;;;9.69;36.39
54920;BME280;63804;53.120;8.764;2023-04-07T10:39:42;101929.31;;;9.69;36.98
54920;BME280;63804;53.120;8.764;2023-04-07T10:45:02;101922.09;;;9.71;37.42
54920;BME280;63804;53.120;8.764;2023-04-07T10:47:29;101928.34;;;9.70;37.34
54920;BME280;63804;53.120;8.764;2023-04-07T10:50:18;101930.03;;;9.71;36.25
54920;BME280;63804;53.120;8.764;2023-04-07T10:52:46;101921.34;;;9.69;36.87
54920;BME280;63804;53.120;8.764;2023-04-07T11:03:40;101931.94;;;9.69;36.96
54920;BME280;63804;53.120;8.764;2023-04-07T11:06:13;101940.88;;;9.82;36.50
54920;BME280;63804;53.120;8.764;2023-04-07T11:08:40;101939.88;;;9.85;36.64
54920;BME280;63804;53.120;8.764;2023-04-07T11:11:10;101939.06;;;9.83;36.04
54920;BME280;63804;53.120;8.764;2023-04-07T11:16:09;101937.53;;;9.94;36.90
54920;BME280;63804;53.120;8.764;2023-04-07T11:18:36;101940.97;;;10.11;36.82
54920;BME280;63804;53.120;8.764;2023-04-07T11:21:02;101939.94;;;10.13;36.69
54920;BME280;63804;53.120;8.764;2023-04-07T11:23:43;101945.59;;;10.07;35.95
54920;BME280;63804;53.120;8.764;2023-04-07T11:26:11;101950.72;;;10.10;35.85
54920;BME280;63804;53.120;8.764;2023-04-07T11:28:46;101942.59;;;10.13;35.79
54920;BME280;63804;53.120;8.764;2023-04-07T11:31:29;101947.03;;;10.13;35.11
54920;BME280;63804;53.120;8.764;2023-04-07T11:33:57;101947.44;;;10.21;35.36
54920;BME280;63804;53.120;8.764;2023-04-07T11:36:34;101948.06;;;10.25;35.71
54920;BME280;63804;53.120;8.764;2023-04-07T11:39:03;101945.34;;;10.26;35.08
54920;BME280;63804;53.120;8.764;2023-04-07T11:41:30;101951.13;;;10.18;34.90
54920;BME280;63804;53.120;8.764;2023-04-07T11:44:13;101944.00;;;10.19;35.74
54920;BME280;63804;53.120;8.764;2023-04-07T11:46:55;101953.97;;;10.30;34.44
54920;BME280;63804;53.120;8.764;2023-04-07T11:49:22;101946.53;;;10.20;35.30
54920;BME280;63804;53.120;8.764;2023-04-07T11:52:00;101947.13;;;10.26;36.08
54920;BME280;63804;53.120;8.764;2023-04-07T11:54:26;101954.25;;;10.25;36.18
54920;BME280;63804;53.120;8.764;2023-04-07T11:56:51;101948.06;;;10.25;35.33
54920;BME280;63804;53.120;8.764;2023-04-07T11:59:24;101942.69;;;10.26;35.79
54920;BME280;63804;53.120;8.764;2023-04-07T12:01:51;101956.91;;;10.25;36.12
54920;BME280;63804;53.120;8.764;2023-04-07T12:04:18;101949.03;;;10.38;35.28
54920;BME280;63804;53.120;8.764;2023-04-07T12:06:45;101952.53;;;10.38;34.79
54920;BME280;63804;53.120;8.764;2023-04-07T12:11:51;101940.47;;;10.47;35.35
54920;BME280;63804;53.120;8.764;2023-04-07T12:14:17;101948.94;;;10.54;34.87
54920;BME280;63804;53.120;8.764;2023-04-07T12:16:43;101951.03;;;10.49;34.70
54920;BME280;63804;53.120;8.764;2023-04-07T12:19:09;101950.63;;;10.55;35.43
54920;BME280;63804;53.120;8.764;2023-04-07T12:21:44;101958.34;;;10.59;35.09
54920;BME280;63804;53.120;8.764;2023-04-07T12:24:10;101949.09;;;10.51;34.88
54920;BME280;63804;53.120;8.764;2023-04-07T12:26:35;101957.09;;;10.51;34.53
54920;BME280;63804;53.120;8.764;2023-04-07T12:29:01;101941.91;;;10.53;35.12
54920;BME280;63804;53.120;8.764;2023-04-07T12:31:32;101948.16;;;10.66;35.30
54920;BME280;63804;53.120;8.764;2023-04-07T12:33:58;101942.16;;;10.77;35.08
54920;BME280;63804;53.120;8.764;2023-04-07T12:36:31;101948.91;;;10.68;34.63
54920;BME280;63804;53.120;8.764;2023-04-07T12:38:57;101946.34;;;10.66;34.71
54920;BME280;63804;53.120;8.764;2023-04-07T12:41:24;101954.78;;;10.73;34.18
54920;BME280;63804;53.120;8.764;2023-04-07T12:43:50;101952.13;;;10.73;34.46
54920;BME280;63804;53.120;8.764;2023-04-07T12:46:18;101945.22;;;10.71;34.66
54920;BME280;63804;53.120;8.764;2023-04-07T12:48:45;101945.28;;;10.69;35.21
54920;BME280;63804;53.120;8.764;2023-04-07T12:51:12;101950.19;;;10.89;35.03
54920;BME280;63804;53.120;8.764;2023-04-07T12:53:39;101955.13;;;10.96;34.17
54920;BME280;63804;53.120;8.764;2023-04-07T12:56:05;101950.66;;;10.96;34.72
54920;BME280;63804;53.120;8.764;2023-04-07T12:58:31;101958.31;;;11.01;34.24
54920;BME280;63804;53.120;8.764;2023-04-07T13:00:57;101962.50;;;11.05;33.77
54920;BME280;63804;53.120;8.764;2023-04-07T13:03:23;101959.63;;;11.08;34.47
54920;BME280;63804;53.120;8.764;2023-04-07T13:05:48;101962.22;;;11.09;34.68
54920;BME280;63804;53.120;8.764;2023-04-07T13:08:14;101958.47;;;11.12;34.12
54920;BME280;63804;53.120;8.764;2023-04-07T13:10:40;101954.91;;;11.13;34.38
54920;BME280;63804;53.120;8.764;2023-04-07T13:13:06;101960.22;;;11.13;34.26
54920;BME280;63804;53.120;8.764;2023-04-07T13:15:31;101950.94;;;11.06;33.95
54920;BME280;63804;53.120;8.764;2023-04-07T13:17:57;101958.97;;;11.04;33.80
54920;BME280;63804;53.120;8.764;2023-04-07T13:20:23;101945.91;;;11.01;33.53
54920;BME280;63804;53.120;8.764;2023-04-07T13:22:52;101956.78;;;11.11;33.88
54920;BME280;63804;53.120;8.764;2023-04-07T13:25:18;101944.53;;;11.08;33.46
54920;BME280;63804;53.120;8.764;2023-04-07T13:27:50;101953.66;;;11.04;33.51